sensor_id;sensor_type;location;lat;lon;timestamp;P1;durP1;ratioP1;P2;durP2;ratioP2
49784;SDS011;35679;38.732;-121.358;2023-04-07T00:02:57;3.28;;;3.08;;
49784;SDS011;35679;38.732;-121.358;2023-04-07T00:05:47;3.28;;;3.08;;
49784;SDS011;35679;38.732;-121.358;2023-04-07T00:08:36;3.38;;;3.17;;
49784;SDS011;35679;38.732;-121.358;2023-04-07T00:11:25;3.20;;;3.00;;
49784;SDS011;35679;38.732;-121.358;2023-04-07T00:14:15;3.47;;;3.28;;
49784;SDS011;35679;38.732;-121.358;2023-04-07T00:17:04;3.30;;;3.10;;
49784;SDS011;35679;38.732;-121.358;2023-04-07T00:19:54;3.35;;;3.05;;
49784;SDS011;35679;38.732;-121.358;2023-04-07T00:22:43;3.00;;;2.90;;
49784;SDS011;35679;38.732;-121.358;2023-04-07T00:25:32;3.15;;;2.95;;
49784;SDS011;35679;38.732;-121.358;2023-04-07T00:28:22;3.20;;;3.00;;
49784;SDS011;35679;38.732;-121.358;2023-04-07T00:31:11;2.95;;;2.75;;
49784;SDS011;35679;38.732;-121.358;2023-04-07T00:34:01;3.30;;;3.10;;
49784;SDS011;35679;38.732;-121.358;2023-04-07T00:36:50;3.05;;;2.85;;
49784;SDS011;35679;38.732;-121.358;2023-04-07T00:39:39;3.33;;;3.13;;
49784;SDS011;35679;38.732;-121.358;2023-04-07T00:42:29;2.83;;;2.72;;
49784;SDS011;35679;38.732;-121.358;2023-04-07T00:45:19;3.20;;;3.00;;
49784;SDS011;35679;38.732;-121.358;2023-04-07T00:48:09;3.20;;;3.00;;
49784;SDS011;35679;38.732;-121.358;2023-04-07T00:50:58;3.42;;;3.22;;
49784;SDS011;35679;38.732;-121.358;2023-04-07T00:53:48;3.15;;;2.90;;
49784;SDS011;35679;38.732;-121.358;2023-04-07T00:56:37;2.90;;;2.80;;
49784;SDS011;35679;38.732;-121.358;2023-04-07T00:59:29;2.95;;;2.75;;
49784;SDS011;35679;38.732;-121.358;2023-04-07T01:05:58;3.22;;;2.85;;
49784;SDS011;35679;38.732;-121.358;2023-04-07T01:08:56;3.00;;;2.83;;
49784;SDS011;35679;38.732;-121.358;2023-04-07T01:11:55;3.17;;;2.97;;
49784;SDS011;35679;38.732;-121.358;2023-04-07T01:15:07;2.95;;;2.80;;
49784;SDS011;35679;38.732;-121.358;2023-04-07T01:18:09;2.90;;;2.70;;
49784;SDS011;35679;38.732;-121.358;2023-04-07T01:21:05;3.10;;;2.90;;
49784;SDS011;35679;38.732;-121.358;2023-04-07T01:24:17;3.13;;;2.92;;
49784;SDS011;35679;38.732;-121.358;2023-04-07T01:30:29;2.88;;;2.70;;
49784;SDS011;35679;38.732;-121.358;2023-04-07T01:33:20;3.20;;;3.00;;
49784;SDS011;35679;38.732;-121.358;2023-04-07T01:36:11;2.88;;;2.78;;
49784;SDS011;35679;38.732;-121.358;2023-04-07T01:39:01;2.92;;;2.72;;
49784;SDS011;35679;38.732;-121.358;2023-04-07T01:41:51;3.45;;;3.25;;
49784;SDS011;35679;38.732;-121.358;2023-04-07T01:44:43;2.95;;;2.78;;
49784;SDS011;35679;38.732;-121.358;2023-04-07T01:47:34;2.90;;;2.70;;
49784;SDS011;35679;38.732;-121.358;2023-04-07T01:50:27;3.35;;;3.05;;
49784;SDS011;35679;38.732;-121.358;2023-04-07T01:53:18;3.30;;;2.88;;
49784;SDS011;35679;38.732;-121.358;2023-04-07T01:56:08;3.30;;;3.10;;
49784;SDS011;35679;38.732;-121.358;2023-04-07T01:58:58;3.40;;;3.10;;
49784;SDS011;35679;38.732;-121.358;2023-04-07T02:01:48;2.83;;;2.70;;
49784;SDS011;35679;38.732;-121.358;2023-04-07T02:05:12;3.20;;;3.00;;
49784;SDS011;35679;38.732;-121.358;2023-04-07T02:08:00;3.20;;;3.00;;
49784;SDS011;35679;38.732;-121.358;2023-04-07T02:10:54;2.83;;;2.72;;
49784;SDS011;35679;38.732;-121.358;2023-04-07T02:13:50;3.00;;;2.80;;
49784;SDS011;35679;38.732;-121.358;2023-04-07T02:16:42;3.05;;;2.85;;
49784;SDS011;35679;38.732;-121.358;2023-04-07T02:19:34;3.40;;;3.20;;
49784;SDS011;35679;38.732;-121.358;2023-04-07T02:22:24;3.42;;;3.22;;
49784;SDS011;35679;38.732;-121.358;2023-04-07T02:25:21;3.63;;;3.42;;
49784;SDS011;35679;38.732;-121.358;2023-04-07T02:28:14;3.38;;;3.17;;
49784;SDS011;35679;38.732;-121.358;2023-04-07T02:31:04;3.67;;;3.45;;
49784;SDS011;35679;38.732;-121.358;2023-04-07T02:33:54;3.50;;;3.30;;
49784;SDS011;35679;38.732;-121.358;2023-04-07T02:36:43;3.40;;;3.20;;
49784;SDS011;35679;38.732;-121.358;2023-04-07T02:39:33;3.42;;;3.22;;
49784;SDS011;35679;38.732;-121.358;2023-04-07T02:42:22;3.13;;;3.00;;
49784;SDS011;35679;38.732;-121.358;2023-04-07T02:45:12;3.40;;;3.20;;
49784;SDS011;35679;38.732;-121.358;2023-04-07T02:48:01;3.45;;;3.25;;
49784;SDS011;35679;38.732;-121.358;2023-04-07T02:50:51;3.47;;;3.30;;
49784;SDS011;35679;38.732;-121.358;2023-04-07T02:53:40;3.55;;;3.35;;
49784;SDS011;35679;38.732;-121.358;2023-04-07T02:56:30;3.60;;;3.40;;
49784;SDS011;35679;38.732;-121.358;2023-04-07T02:59:20;3.17;;;3.08;;
49784;SDS011;35679;38.732;-121.358;2023-04-07T03:02:10;3.55;;;3.35;;
49784;SDS011;35679;38.732;-121.358;2023-04-07T03:05:00;3.50;;;3.30;;
49784;SDS011;35679;38.732;-121.358;2023-04-07T03:07:51;3.17;;;2.97;;
49784;SDS011;35679;38.732;-121.358;2023-04-07T03:10:40;3.53;;;3.33;;
49784;SDS011;35679;38.732;-121.358;2023-04-07T03:13:31;3.42;;;3.13;;
49784;SDS011;35679;38.732;-121.358;2023-04-07T03:16:21;3.08;;;2.88;;
49784;SDS011;35679;38.732;-121.358;2023-04-07T03:19:31;3.30;;;3.10;;
49784;SDS011;35679;38.732;-121.358;2023-04-07T03:22:21;3.33;;;3.13;;
49784;SDS011;35679;38.732;-121.358;2023-04-07T03:25:12;3.55;;;3.35;;
49784;SDS011;35679;38.732;-121.358;2023-04-07T03:28:01;3.30;;;3.10;;
49784;SDS011;35679;38.732;-121.358;2023-04-07T03:30:54;3.20;;;3.05;;
49784;SDS011;35679;38.732;-121.358;2023-04-07T03:33:44;3.20;;;3.00;;
49784;SDS011;35679;38.732;-121.358;2023-04-07T03:36:33;2.95;;;2.80;;
49784;SDS011;35679;38.732;-121.358;2023-04-07T03:39:24;2.90;;;2.80;;
49784;SDS011;35679;38.732;-121.358;2023-04-07T03:42:17;3.22;;;3.05;;
49784;SDS011;35679;38.732;-121.358;2023-04-07T03:45:06;3.28;;;3.08;;
49784;SDS011;35679;38.732;-121.358;2023-04-07T03:48:04;3.20;;;3.00;;
49784;SDS011;35679;38.732;-121.358;2023-04-07T03:51:06;3.42;;;3.25;;
49784;SDS011;35679;38.732;-121.358;2023-04-07T03:53:56;3.45;;;3.25;;
49784;SDS011;35679;38.732;-121.358;2023-04-07T03:56:58;3.70;;;3.40;;
49784;SDS011;35679;38.732;-121.358;2023-04-07T03:59:53;3.40;;;3.20;;
49784;SDS011;35679;38.732;-121.358;2023-04-07T04:02:43;3.15;;;2.95;;
49784;SDS011;35679;38.732;-121.358;2023-04-07T04:05:38;2.92;;;2.83;;
49784;SDS011;35679;38.732;-121.358;2023-04-07T04:08:33;3.08;;;2.97;;
49784;SDS011;35679;38.732;-121.358;2023-04-07T04:11:22;3.20;;;3.10;;
49784;SDS011;35679;38.732;-121.358;2023-04-07T04:14:16;3.40;;;3.20;;
49784;SDS011;35679;38.732;-121.358;2023-04-07T04:17:12;3.33;;;3.13;;
49784;SDS011;35679;38.732;-121.358;2023-04-07T04:20:08;3.40;;;3.20;;
49784;SDS011;35679;38.732;-121.358;2023-04-07T04:23:04;3.15;;;3.00;;
49784;SDS011;35679;38.732;-121.358;2023-04-07T04:25:55;3.45;;;3.25;;
49784;SDS011;35679;38.732;-121.358;2023-04-07T04:28:47;3.15;;;3.00;;
49784;SDS011;35679;38.732;-121.358;2023-04-07T04:31:38;3.13;;;3.03;;
49784;SDS011;35679;38.732;-121.358;2023-04-07T04:34:29;3.50;;;3.30;;
49784;SDS011;35679;38.732;-121.358;2023-04-07T04:37:18;3.28;;;3.08;;
49784;SDS011;35679;38.732;-121.358;2023-04-07T04:40:08;3.53;;;3.33;;
49784;SDS011;35679;38.732;-121.358;2023-04-07T04:42:59;3.22;;;3.03;;
49784;SDS011;35679;38.732;-121.358;2023-04-07T04:45:49;3.47;;;3.28;;
49784;SDS011;35679;38.732;-121.358;2023-04-07T04:48:42;3.20;;;3.00;;
49784;SDS011;35679;38.732;-121.358;2023-04-07T04:51:32;3.30;;;3.10;;
49784;SDS011;35679;38.732;-121.358;2023-04-07T04:54:30;3.05;;;2.95;;
49784;SDS011;35679;38.732;-121.358;2023-04-07T04:57:20;3.55;;;3.35;;
49784;SDS011;35679;38.732;-121.358;2023-04-07T05:00:10;3.00;;;2.80;;
49784;SDS011;35679;38.732;-121.358;2023-04-07T05:03:02;3.28;;;3.10;;
49784;SDS011;35679;38.732;-121.358;2023-04-07T05:05:56;3.30;;;3.10;;
49784;SDS011;35679;38.732;-121.358;2023-04-07T05:08:46;3.20;;;3.00;;
49784;SDS011;35679;38.732;-121.358;2023-04-07T05:11:39;3.05;;;2.95;;
49784;SDS011;35679;38.732;-121.358;2023-04-07T05:14:30;3.50;;;3.30;;
49784;SDS011;35679;38.732;-121.358;2023-04-07T05:17:24;3.30;;;3.10;;
49784;SDS011;35679;38.732;-121.358;2023-04-07T05:20:13;3.40;;;3.20;;
49784;SDS011;35679;38.732;-121.358;2023-04-07T05:23:05;3.33;;;3.13;;
49784;SDS011;35679;38.732;-121.358;2023-04-07T05:25:55;3.35;;;3.15;;
49784;SDS011;35679;38.732;-121.358;2023-04-07T05:28:45;3.20;;;3.00;;
49784;SDS011;35679;38.732;-121.358;2023-04-07T05:31:38;3.17;;;3.08;;
49784;SDS011;35679;38.732;-121.358;2023-04-07T05:34:32;3.30;;;3.10;;
49784;SDS011;35679;38.732;-121.358;2023-04-07T05:37:22;3.42;;;3.22;;
49784;SDS011;35679;38.732;-121.358;2023-04-07T05:40:12;3.25;;;3.05;;
49784;SDS011;35679;38.732;-121.358;2023-04-07T05:43:02;3.83;;;3.55;;
49784;SDS011;35679;38.732;-121.358;2023-04-07T05:45:53;3.63;;;3.42;;
49784;SDS011;35679;38.732;-121.358;2023-04-07T05:48:43;3.47;;;3.28;;
49784;SDS011;35679;38.732;-121.358;2023-04-07T05:51:33;3.40;;;3.20;;
49784;SDS011;35679;38.732;-121.358;2023-04-07T05:54:29;3.42;;;3.22;;
49784;SDS011;35679;38.732;-121.358;2023-04-07T05:57:21;3.25;;;3.05;;
49784;SDS011;35679;38.732;-121.358;2023-04-07T06:00:11;3.20;;;3.05;;
49784;SDS011;35679;38.732;-121.358;2023-04-07T06:03:04;3.58;;;3.38;;
49784;SDS011;35679;38.732;-121.358;2023-04-07T06:06:03;3.50;;;3.30;;
49784;SDS011;35679;38.732;-121.358;2023-04-07T06:08:54;3.60;;;3.40;;
49784;SDS011;35679;38.732;-121.358;2023-04-07T06:11:44;3.22;;;3.03;;
49784;SDS011;35679;38.732;-121.358;2023-04-07T06:14:35;3.40;;;3.20;;
49784;SDS011;35679;38.732;-121.358;2023-04-07T06:17:24;3.28;;;3.13;;
49784;SDS011;35679;38.732;-121.358;2023-04-07T06:20:14;3.58;;;3.30;;
49784;SDS011;35679;38.732;-121.358;2023-04-07T06:23:03;3.30;;;3.10;;
49784;SDS011;35679;38.732;-121.358;2023-04-07T06:25:54;3.35;;;3.15;;
49784;SDS011;35679;38.732;-121.358;2023-04-07T06:28:43;3.70;;;3.50;;
49784;SDS011;35679;38.732;-121.358;2023-04-07T06:31:34;3.40;;;3.20;;
49784;SDS011;35679;38.732;-121.358;2023-04-07T06:34:23;3.30;;;3.10;;
49784;SDS011;35679;38.732;-121.358;2023-04-07T06:37:13;3.47;;;3.28;;
49784;SDS011;35679;38.732;-121.358;2023-04-07T06:40:05;3.63;;;3.42;;
49784;SDS011;35679;38.732;-121.358;2023-04-07T06:42:55;3.05;;;2.95;;
49784;SDS011;35679;38.732;-121.358;2023-04-07T06:45:57;3.72;;;3.53;;
49784;SDS011;35679;38.732;-121.358;2023-04-07T06:48:46;3.60;;;3.40;;
49784;SDS011;35679;38.732;-121.358;2023-04-07T06:51:36;3.42;;;3.22;;
49784;SDS011;35679;38.732;-121.358;2023-04-07T06:54:25;3.47;;;3.30;;
49784;SDS011;35679;38.732;-121.358;2023-04-07T06:57:15;3.75;;;3.55;;
49784;SDS011;35679;38.732;-121.358;2023-04-07T07:00:05;3.58;;;3.38;;
49784;SDS011;35679;38.732;-121.358;2023-04-07T07:05:47;3.55;;;3.35;;
49784;SDS011;35679;38.732;-121.358;2023-04-07T07:08:36;3.53;;;3.33;;
49784;SDS011;35679;38.732;-121.358;2023-04-07T07:11:26;3.70;;;3.42;;
49784;SDS011;35679;38.732;-121.358;2023-04-07T07:14:15;2.92;;;2.83;;
49784;SDS011;35679;38.732;-121.358;2023-04-07T07:17:05;4.30;;;3.28;;
49784;SDS011;35679;38.732;-121.358;2023-04-07T07:19:54;3.05;;;2.95;;
49784;SDS011;35679;38.732;-121.358;2023-04-07T07:22:43;3.30;;;3.10;;
49784;SDS011;35679;38.732;-121.358;2023-04-07T07:25:33;3.60;;;3.40;;
49784;SDS011;35679;38.732;-121.358;2023-04-07T07:28:22;3.47;;;3.38;;
49784;SDS011;35679;38.732;-121.358;2023-04-07T07:31:12;3.38;;;3.17;;
49784;SDS011;35679;38.732;-121.358;2023-04-07T07:34:02;3.67;;;3.47;;
49784;SDS011;35679;38.732;-121.358;2023-04-07T07:36:52;3.53;;;3.33;;
49784;SDS011;35679;38.732;-121.358;2023-04-07T07:39:41;3.50;;;3.30;;
49784;SDS011;35679;38.732;-121.358;2023-04-07T07:42:31;3.55;;;3.35;;
49784;SDS011;35679;38.732;-121.358;2023-04-07T07:45:20;3.50;;;3.30;;
49784;SDS011;35679;38.732;-121.358;2023-04-07T07:48:10;3.47;;;3.28;;
49784;SDS011;35679;38.732;-121.358;2023-04-07T07:50:59;3.35;;;3.15;;
49784;SDS011;35679;38.732;-121.358;2023-04-07T07:53:48;3.30;;;3.10;;
49784;SDS011;35679;38.732;-121.358;2023-04-07T07:56:38;3.30;;;3.10;;
49784;SDS011;35679;38.732;-121.358;2023-04-07T07:59:27;3.28;;;3.03;;
49784;SDS011;35679;38.732;-121.358;2023-04-07T08:02:17;3.08;;;2.92;;
49784;SDS011;35679;38.732;-121.358;2023-04-07T08:05:06;3.85;;;3.55;;
49784;SDS011;35679;38.732;-121.358;2023-04-07T08:07:56;3.38;;;3.17;;
49784;SDS011;35679;38.732;-121.358;2023-04-07T08:10:46;3.42;;;3.22;;
49784;SDS011;35679;38.732;-121.358;2023-04-07T08:13:36;3.40;;;3.20;;
49784;SDS011;35679;38.732;-121.358;2023-04-07T08:16:25;3.20;;;3.10;;
49784;SDS011;35679;38.732;-121.358;2023-04-07T08:19:15;3.45;;;3.25;;
49784;SDS011;35679;38.732;-121.358;2023-04-07T08:22:04;3.33;;;3.03;;
49784;SDS011;35679;38.732;-121.358;2023-04-07T08:24:53;3.22;;;3.10;;
49784;SDS011;35679;38.732;-121.358;2023-04-07T08:27:43;3.63;;;3.42;;
49784;SDS011;35679;38.732;-121.358;2023-04-07T08:30:32;3.40;;;3.20;;
49784;SDS011;35679;38.732;-121.358;2023-04-07T08:33:22;3.72;;;3.53;;
49784;SDS011;35679;38.732;-121.358;2023-04-07T08:36:11;3.60;;;3.40;;
49784;SDS011;35679;38.732;-121.358;2023-04-07T08:39:01;4.32;;;3.35;;
49784;SDS011;35679;38.732;-121.358;2023-04-07T08:41:52;3.35;;;3.20;;
49784;SDS011;35679;38.732;-121.358;2023-04-07T08:44:44;3.55;;;3.33;;
49784;SDS011;35679;38.732;-121.358;2023-04-07T08:47:36;3.33;;;3.13;;
49784;SDS011;35679;38.732;-121.358;2023-04-07T08:50:27;3.72;;;3.42;;
49784;SDS011;35679;38.732;-121.358;2023-04-07T08:53:22;3.50;;;3.30;;
49784;SDS011;35679;38.732;-121.358;2023-04-07T08:56:18;3.33;;;3.13;;
49784;SDS011;35679;38.732;-121.358;2023-04-07T08:59:12;3.25;;;3.05;;
49784;SDS011;35679;38.732;-121.358;2023-04-07T09:02:03;3.50;;;3.30;;
49784;SDS011;35679;38.732;-121.358;2023-04-07T09:04:53;3.58;;;3.38;;
49784;SDS011;35679;38.732;-121.358;2023-04-07T09:07:42;3.50;;;3.30;;
49784;SDS011;35679;38.732;-121.358;2023-04-07T09:10:32;3.38;;;3.20;;
49784;SDS011;35679;38.732;-121.358;2023-04-07T09:13:23;3.25;;;3.15;;
49784;SDS011;35679;38.732;-121.358;2023-04-07T09:16:13;3.40;;;3.20;;
49784;SDS011;35679;38.732;-121.358;2023-04-07T09:19:03;3.60;;;3.40;;
49784;SDS011;35679;38.732;-121.358;2023-04-07T09:21:52;3.30;;;3.20;;
49784;SDS011;35679;38.732;-121.358;2023-04-07T09:24:41;3.42;;;3.13;;
49784;SDS011;35679;38.732;-121.358;2023-04-07T09:27:31;3.65;;;3.35;;
49784;SDS011;35679;38.732;-121.358;2023-04-07T09:30:21;3.45;;;3.25;;
49784;SDS011;35679;38.732;-121.358;2023-04-07T09:33:10;3.03;;;2.88;;
49784;SDS011;35679;38.732;-121.358;2023-04-07T09:36:04;3.50;;;3.30;;
49784;SDS011;35679;38.732;-121.358;2023-04-07T09:38:54;3.45;;;3.25;;
49784;SDS011;35679;38.732;-121.358;2023-04-07T09:41:44;3.45;;;3.25;;
49784;SDS011;35679;38.732;-121.358;2023-04-07T09:44:38;3.55;;;3.35;;
49784;SDS011;35679;38.732;-121.358;2023-04-07T09:47:31;3.20;;;3.05;;
49784;SDS011;35679;38.732;-121.358;2023-04-07T09:50:30;4.00;;;3.70;;
49784;SDS011;35679;38.732;-121.358;2023-04-07T09:56:36;4.00;;;3.80;;
49784;SDS011;35679;38.732;-121.358;2023-04-07T09:59:25;3.50;;;3.30;;
49784;SDS011;35679;38.732;-121.358;2023-04-07T10:02:16;3.28;;;3.08;;
49784;SDS011;35679;38.732;-121.358;2023-04-07T10:05:06;3.63;;;3.42;;
49784;SDS011;35679;38.732;-121.358;2023-04-07T10:07:56;3.55;;;3.35;;
49784;SDS011;35679;38.732;-121.358;2023-04-07T10:10:45;3.25;;;3.08;;
49784;SDS011;35679;38.732;-121.358;2023-04-07T10:13:38;3.67;;;3.47;;
49784;SDS011;35679;38.732;-121.358;2023-04-07T10:16:28;3.50;;;3.30;;
49784;SDS011;35679;38.732;-121.358;2023-04-07T10:19:18;3.67;;;3.45;;
49784;SDS011;35679;38.732;-121.358;2023-04-07T10:22:08;3.60;;;3.40;;
49784;SDS011;35679;38.732;-121.358;2023-04-07T10:25:01;3.65;;;3.45;;
49784;SDS011;35679;38.732;-121.358;2023-04-07T10:28:00;3.53;;;3.33;;
49784;SDS011;35679;38.732;-121.358;2023-04-07T10:30:53;3.10;;;3.00;;
49784;SDS011;35679;38.732;-121.358;2023-04-07T10:33:50;3.35;;;3.17;;
49784;SDS011;35679;38.732;-121.358;2023-04-07T10:43:09;3.38;;;3.00;;
49784;SDS011;35679;38.732;-121.358;2023-04-07T10:45:59;3.50;;;3.30;;
49784;SDS011;35679;38.732;-121.358;2023-04-07T10:49:22;3.70;;;3.42;;
49784;SDS011;35679;38.732;-121.358;2023-04-07T10:58:26;3.33;;;3.22;;
49784;SDS011;35679;38.732;-121.358;2023-04-07T11:01:19;3.78;;;3.58;;
49784;SDS011;35679;38.732;-121.358;2023-04-07T11:04:08;3.65;;;3.45;;
49784;SDS011;35679;38.732;-121.358;2023-04-07T11:06:57;3.35;;;3.05;;
49784;SDS011;35679;38.732;-121.358;2023-04-07T11:09:47;3.08;;;2.97;;
49784;SDS011;35679;38.732;-121.358;2023-04-07T11:12:36;3.80;;;3.50;;
49784;SDS011;35679;38.732;-121.358;2023-04-07T11:15:26;3.47;;;3.25;;
49784;SDS011;35679;38.732;-121.358;2023-04-07T11:18:19;3.75;;;3.50;;
49784;SDS011;35679;38.732;-121.358;2023-04-07T11:21:10;3.45;;;3.25;;
49784;SDS011;35679;38.732;-121.358;2023-04-07T11:23:59;3.22;;;3.03;;
49784;SDS011;35679;38.732;-121.358;2023-04-07T11:26:49;3.30;;;3.10;;
49784;SDS011;35679;38.732;-121.358;2023-04-07T11:29:39;3.60;;;3.30;;
49784;SDS011;35679;38.732;-121.358;2023-04-07T11:32:29;3.60;;;3.30;;
49784;SDS011;35679;38.732;-121.358;2023-04-07T11:35:18;3.53;;;3.33;;
49784;SDS011;35679;38.732;-121.358;2023-04-07T11:38:07;3.50;;;3.30;;
49784;SDS011;35679;38.732;-121.358;2023-04-07T11:41:08;3.28;;;3.08;;
49784;SDS011;35679;38.732;-121.358;2023-04-07T11:44:05;3.15;;;2.95;;
49784;SDS011;35679;38.732;-121.358;2023-04-07T11:46:59;3.65;;;3.42;;
49784;SDS011;35679;38.732;-121.358;2023-04-07T11:49:51;3.70;;;3.50;;
49784;SDS011;35679;38.732;-121.358;2023-04-07T11:52:44;3.22;;;3.03;;
49784;SDS011;35679;38.732;-121.358;2023-04-07T11:55:34;3.58;;;3.38;;
49784;SDS011;35679;38.732;-121.358;2023-04-07T11:58:24;3.72;;;3.40;;
49784;SDS011;35679;38.732;-121.358;2023-04-07T12:01:13;3.20;;;3.05;;
49784;SDS011;35679;38.732;-121.358;2023-04-07T12:04:03;3.47;;;3.28;;
49784;SDS011;35679;38.732;-121.358;2023-04-07T12:06:53;3.35;;;3.22;;
49784;SDS011;35679;38.732;-121.358;2023-04-07T12:09:42;3.40;;;3.20;;
49784;SDS011;35679;38.732;-121.358;2023-04-07T12:12:32;3.20;;;3.00;;
49784;SDS011;35679;38.732;-121.358;2023-04-07T12:15:21;3.55;;;3.25;;
49784;SDS011;35679;38.732;-121.358;2023-04-07T12:18:13;3.15;;;3.00;;
49784;SDS011;35679;38.732;-121.358;2023-04-07T12:21:04;3.30;;;3.20;;
49784;SDS011;35679;38.732;-121.358;2023-04-07T12:23:53;3.30;;;3.10;;
49784;SDS011;35679;38.732;-121.358;2023-04-07T12:26:43;3.53;;;3.28;;
49784;SDS011;35679;38.732;-121.358;2023-04-07T12:29:32;3.97;;;3.67;;
49784;SDS011;35679;38.732;-121.358;2023-04-07T12:32:22;3.33;;;3.13;;
49784;SDS011;35679;38.732;-121.358;2023-04-07T12:35:12;3.13;;;3.00;;
49784;SDS011;35679;38.732;-121.358;2023-04-07T12:38:01;3.13;;;2.95;;
49784;SDS011;35679;38.732;-121.358;2023-04-07T12:40:50;3.25;;;3.05;;
49784;SDS011;35679;38.732;-121.358;2023-04-07T12:43:40;3.50;;;3.17;;
49784;SDS011;35679;38.732;-121.358;2023-04-07T12:46:32;3.55;;;3.20;;
49784;SDS011;35679;38.732;-121.358;2023-04-07T12:49:21;3.10;;;3.00;;
49784;SDS011;35679;38.732;-121.358;2023-04-07T12:52:11;3.30;;;3.00;;
49784;SDS011;35679;38.732;-121.358;2023-04-07T12:55:00;3.13;;;2.92;;
49784;SDS011;35679;38.732;-121.358;2023-04-07T12:57:49;3.28;;;3.08;;
49784;SDS011;35679;38.732;-121.358;2023-04-07T13:00:39;3.05;;;2.85;;
49784;SDS011;35679;38.732;-121.358;2023-04-07T13:03:29;4.47;;;3.25;;
49784;SDS011;35679;38.732;-121.358;2023-04-07T13:06:18;3.00;;;2.90;;
49784;SDS011;35679;38.732;-121.358;2023-04-07T13:09:08;3.25;;;3.00;;
49784;SDS011;35679;38.732;-121.358;2023-04-07T13:11:57;3.47;;;3.28;;
49784;SDS011;35679;38.732;-121.358;2023-04-07T13:14:46;3.60;;;3.30;;
49784;SDS011;35679;38.732;-121.358;2023-04-07T13:17:46;3.10;;;2.90;;
49784;SDS011;35679;38.732;-121.358;2023-04-07T13:20:36;3.00;;;2.80;;
49784;SDS011;35679;38.732;-121.358;2023-04-07T13:23:26;3.25;;;3.05;;
49784;SDS011;35679;38.732;-121.358;2023-04-07T13:26:28;3.28;;;3.00;;
49784;SDS011;35679;38.732;-121.358;2023-04-07T13:29:19;3.00;;;2.80;;
49784;SDS011;35679;38.732;-121.358;2023-04-07T13:32:09;3.40;;;3.20;;
49784;SDS011;35679;38.732;-121.358;2023-04-07T13:35:02;3.45;;;3.25;;
49784;SDS011;35679;38.732;-121.358;2023-04-07T13:37:52;4.63;;;3.40;;
49784;SDS011;35679;38.732;-121.358;2023-04-07T13:40:41;3.13;;;3.03;;
49784;SDS011;35679;38.732;-121.358;2023-04-07T13:43:32;3.50;;;3.30;;
49784;SDS011;35679;38.732;-121.358;2023-04-07T13:46:21;3.55;;;3.33;;
49784;SDS011;35679;38.732;-121.358;2023-04-07T13:49:14;3.78;;;3.40;;
49784;SDS011;35679;38.732;-121.358;2023-04-07T13:52:04;3.42;;;3.15;;
49784;SDS011;35679;38.732;-121.358;2023-04-07T13:54:53;3.50;;;3.22;;
49784;SDS011;35679;38.732;-121.358;2023-04-07T13:57:43;3.15;;;2.97;;
49784;SDS011;35679;38.732;-121.358;2023-04-07T14:00:33;3.17;;;2.95;;
49784;SDS011;35679;38.732;-121.358;2023-04-07T14:03:23;3.20;;;2.90;;
49784;SDS011;35679;38.732;-121.358;2023-04-07T14:06:12;3.60;;;3.08;;
49784;SDS011;35679;38.732;-121.358;2023-04-07T14:09:02;3.08;;;2.80;;
49784;SDS011;35679;38.732;-121.358;2023-04-07T14:11:53;2.70;;;2.60;;
49784;SDS011;35679;38.732;-121.358;2023-04-07T14:14:43;2.63;;;2.50;;
49784;SDS011;35679;38.732;-121.358;2023-04-07T14:17:32;2.45;;;2.35;;
49784;SDS011;35679;38.732;-121.358;2023-04-07T14:20:21;2.83;;;2.50;;
49784;SDS011;35679;38.732;-121.358;2023-04-07T14:23:13;2.58;;;2.40;;
49784;SDS011;35679;38.732;-121.358;2023-04-07T14:26:16;2.63;;;2.50;;
49784;SDS011;35679;38.732;-121.358;2023-04-07T14:29:06;2.90;;;2.70;;
49784;SDS011;35679;38.732;-121.358;2023-04-07T14:31:55;2.60;;;2.50;;
49784;SDS011;35679;38.732;-121.358;2023-04-07T14:34:45;2.88;;;2.63;;
49784;SDS011;35679;38.732;-121.358;2023-04-07T14:37:34;2.70;;;2.60;;
49784;SDS011;35679;38.732;-121.358;2023-04-07T14:40:24;2.80;;;2.60;;
49784;SDS011;35679;38.732;-121.358;2023-04-07T14:43:13;2.80;;;2.65;;
49784;SDS011;35679;38.732;-121.358;2023-04-07T14:46:02;2.65;;;2.53;;
49784;SDS011;35679;38.732;-121.358;2023-04-07T14:48:52;2.58;;;2.47;;
49784;SDS011;35679;38.732;-121.358;2023-04-07T14:51:41;2.75;;;2.63;;
49784;SDS011;35679;38.732;-121.358;2023-04-07T14:54:31;2.95;;;2.65;;
49784;SDS011;35679;38.732;-121.358;2023-04-07T14:57:21;3.17;;;2.95;;
49784;SDS011;35679;38.732;-121.358;2023-04-07T15:00:10;2.75;;;2.65;;
49784;SDS011;35679;38.732;-121.358;2023-04-07T15:03:00;2.88;;;2.47;;
49784;SDS011;35679;38.732;-121.358;2023-04-07T15:05:50;2.50;;;2.40;;
49784;SDS011;35679;38.732;-121.358;2023-04-07T15:08:39;2.67;;;2.58;;
49784;SDS011;35679;38.732;-121.358;2023-04-07T15:11:28;2.72;;;2.63;;
49784;SDS011;35679;38.732;-121.358;2023-04-07T15:14:18;2.90;;;2.72;;
49784;SDS011;35679;38.732;-121.358;2023-04-07T15:17:07;2.63;;;2.53;;
49784;SDS011;35679;38.732;-121.358;2023-04-07T15:19:56;2.97;;;2.70;;
49784;SDS011;35679;38.732;-121.358;2023-04-07T15:22:45;3.05;;;2.72;;
49784;SDS011;35679;38.732;-121.358;2023-04-07T15:25:35;3.53;;;2.30;;
49784;SDS011;35679;38.732;-121.358;2023-04-07T15:28:24;2.50;;;2.40;;
49784;SDS011;35679;38.732;-121.358;2023-04-07T15:31:13;2.92;;;2.72;;
49784;SDS011;35679;38.732;-121.358;2023-04-07T15:34:03;2.45;;;2.33;;
49784;SDS011;35679;38.732;-121.358;2023-04-07T15:36:53;2.10;;;2.00;;
49784;SDS011;35679;38.732;-121.358;2023-04-07T15:39:42;2.65;;;2.45;;
49784;SDS011;35679;38.732;-121.358;2023-04-07T15:42:31;2.50;;;2.30;;
49784;SDS011;35679;38.732;-121.358;2023-04-07T15:45:28;3.05;;;2.38;;
49784;SDS011;35679;38.732;-121.358;2023-04-07T15:48:18;3.72;;;2.30;;
49784;SDS011;35679;38.732;-121.358;2023-04-07T15:51:07;2.47;;;2.38;;
49784;SDS011;35679;38.732;-121.358;2023-04-07T15:53:57;3.10;;;2.33;;
49784;SDS011;35679;38.732;-121.358;2023-04-07T15:56:47;2.53;;;2.35;;
49784;SDS011;35679;38.732;-121.358;2023-04-07T15:59:37;4.40;;;2.38;;
49784;SDS011;35679;38.732;-121.358;2023-04-07T16:02:27;2.63;;;2.42;;
49784;SDS011;35679;38.732;-121.358;2023-04-07T16:05:16;3.45;;;2.50;;
49784;SDS011;35679;38.732;-121.358;2023-04-07T16:08:06;2.58;;;2.42;;
49784;SDS011;35679;38.732;-121.358;2023-04-07T16:10:55;2.45;;;2.25;;
49784;SDS011;35679;38.732;-121.358;2023-04-07T16:13:44;2.25;;;2.15;;
49784;SDS011;35679;38.732;-121.358;2023-04-07T16:16:34;2.50;;;2.38;;
49784;SDS011;35679;38.732;-121.358;2023-04-07T16:19:24;2.55;;;2.40;;
49784;SDS011;35679;38.732;-121.358;2023-04-07T16:22:14;2.45;;;2.35;;
49784;SDS011;35679;38.732;-121.358;2023-04-07T16:25:03;2.80;;;2.60;;
49784;SDS011;35679;38.732;-121.358;2023-04-07T16:27:53;2.70;;;2.47;;
49784;SDS011;35679;38.732;-121.358;2023-04-07T16:30:42;2.95;;;2.70;;
49784;SDS011;35679;38.732;-121.358;2023-04-07T16:33:32;2.65;;;2.53;;
49784;SDS011;35679;38.732;-121.358;2023-04-07T16:36:21;2.85;;;2.60;;
49784;SDS011;35679;38.732;-121.358;2023-04-07T16:39:10;3.10;;;2.90;;
49784;SDS011;35679;38.732;-121.358;2023-04-07T16:42:00;2.58;;;2.40;;
49784;SDS011;35679;38.732;-121.358;2023-04-07T16:44:50;3.15;;;2.85;;
49784;SDS011;35679;38.732;-121.358;2023-04-07T16:47:39;3.05;;;2.85;;
49784;SDS011;35679;38.732;-121.358;2023-04-07T16:50:31;2.95;;;2.75;;
49784;SDS011;35679;38.732;-121.358;2023-04-07T16:53:20;3.10;;;2.90;;